Abingdon, Virginia
Current Conditions -  °F | °C
As of 7:55 PM on Tuesday 21 Oct 2014 (Local Time) from KVJI Reporting Station
Overcast Overcast  
Wind Chill: 52°   Ceiling: 5500
Heat Index: 52°   Visibility: 10mi
Dew Point: 40°   Wind: 5mph
Humidity: 63%   Direction: 360°N
Pressure: 30.05"   Gusts: NA
Location:  36.71°N, 81.98°W
Report Text: KVJI 212355Z AUTO 36004KT 10SM SCT044 OVC055 11/04 A3005 RMK AO2 T01100042 10156 20110
Loading
Personal Weather Stations






























Interactive Weather Map
Tropical Storm Tracking
New forecast layout! Learn more

10-Day Weather Forecast

Advertisements
Track Severe Weather on mobile